Time;durP1;ratioP1;P1;durP2;ratioP2;P2;SDS_P1;SDS_P2;PMS_P1;PMS_P2;Temp;Humidity;BMP_temperature;BMP_pressure;BME280_temperature;BME280_humidity;BME280_pressure;Samples;Min_cycle;Max_cycle;Signal;HPM_P1;HPM_P2
2022/02/14 00:00:46;;;;;;;3.17;2.00;;;;;;;2.66;65.69;98295.56;5095514;28;40522;-81
2022/02/14 00:03:14;;;;;;;3.83;2.80;;;;;;;2.72;65.56;98303.16;5095600;28;41819;-80
2022/02/14 00:05:41;;;;;;;3.93;2.27;;;;;;;2.71;65.45;98301.47;5112416;28;42718;-81
2022/02/14 00:08:09;;;;;;;4.23;2.53;;;;;;;2.59;66.06;98285.44;5112202;27;42213;-80
2022/02/14 00:10:39;;;;;;;3.47;2.20;;;;;;;2.68;65.82;98298.97;5112174;28;40481;-81
2022/02/14 00:13:07;;;;;;;5.00;2.13;;;;;;;2.70;65.78;98298.94;5103397;28;40837;-79
2022/02/14 00:15:35;;;;;;;4.10;2.67;;;;;;;2.76;66.07;98288.22;5091433;28;41609;-80
2022/02/14 00:18:03;;;;;;;4.33;2.43;;;;;;;2.89;65.95;98278.97;5113606;28;42463;-79
2022/02/14 00:20:31;;;;;;;3.07;2.37;;;;;;;2.99;65.53;98290.75;5112950;28;40174;-81
2022/02/14 00:22:58;;;;;;;2.40;1.90;;;;;;;3.06;65.13;98286.13;5095552;28;40441;-81
2022/02/14 00:25:26;;;;;;;4.13;2.20;;;;;;;2.98;64.85;98268.13;5112416;28;41726;-80
2022/02/14 00:27:57;;;;;;;3.60;2.40;;;;;;;3.14;65.17;98287.50;5113559;28;43316;-80
2022/02/14 00:30:25;;;;;;;4.07;2.33;;;;;;;3.16;65.20;98285.66;5112919;28;39967;-81
2022/02/14 00:32:52;;;;;;;6.10;2.97;;;;;;;3.20;65.55;98274.16;5095181;28;42070;-81
2022/02/14 00:35:20;;;;;;;2.57;2.03;;;;;;;3.12;64.90;98263.16;5113809;28;42885;-81
2022/02/14 00:37:48;;;;;;;4.73;2.20;;;;;;;3.29;65.23;98266.84;5113309;28;42261;-81
2022/02/14 00:40:15;;;;;;;2.53;2.27;;;;;;;3.31;64.72;98268.47;5112736;28;39900;-80
2022/02/14 00:42:43;;;;;;;5.00;2.90;;;;;;;3.30;64.70;98263.31;5112546;28;41802;-80
2022/02/14 00:45:12;;;;;;;3.97;3.57;;;;;;;3.34;64.58;98265.72;5095420;28;41831;-81
2022/02/14 00:47:39;;;;;;;3.73;1.80;;;;;;;3.38;64.47;98263.81;5112098;28;43173;-80
2022/02/14 00:50:08;;;;;;;3.00;2.10;;;;;;;3.41;64.42;98263.69;5112466;28;39591;-81
2022/02/14 00:52:36;;;;;;;5.87;2.80;;;;;;;3.38;64.28;98250.72;5095279;28;40840;-80
2022/02/14 00:55:04;;;;;;;2.50;1.73;;;;;;;3.47;64.20;98259.03;5111854;28;41681;-81
2022/02/14 00:57:31;;;;;;;4.30;1.97;;;;;;;3.49;64.05;98253.72;5112256;28;43481;-80
2022/02/14 00:59:59;;;;;;;4.27;2.27;;;;;;;3.52;64.14;98256.22;5112503;28;39748;-80
2022/02/14 01:02:28;;;;;;;2.87;2.27;;;;;;;3.51;63.80;98250.13;5111976;28;41979;-80
2022/02/14 01:04:55;;;;;;;3.60;2.07;;;;;;;3.57;63.98;98249.03;5094770;28;41957;-79
2022/02/14 01:07:23;;;;;;;7.07;2.73;;;;;;;3.59;63.77;98253.25;5111817;28;42289;-80
2022/02/14 01:09:51;;;;;;;6.37;3.90;;;;;;;3.64;63.82;98244.34;5112474;28;40022;-81
2022/02/14 01:12:18;;;;;;;4.63;2.53;;;;;;;3.65;63.64;98248.69;5111751;28;40588;-80
2022/02/14 01:14:47;;;;;;;5.00;2.67;;;;;;;3.67;63.55;98237.22;5111978;28;43786;-79
2022/02/14 01:17:14;;;;;;;2.67;2.10;;;;;;;3.73;63.77;98239.56;5110328;28;42760;-81
2022/02/14 01:19:44;;;;;;;5.70;2.43;;;;;;;3.76;63.28;98235.97;5104347;28;40751;-81
2022/02/14 01:22:11;;;;;;;4.43;2.87;;;;;;;3.67;63.39;98226.75;5095766;28;41724;-81
2022/02/14 01:24:39;;;;;;;2.60;1.70;;;;;;;3.78;63.42;98228.88;5094962;28;41990;-81
2022/02/14 01:27:07;;;;;;;3.17;1.83;;;;;;;3.78;63.08;98229.72;5095910;28;42321;-81
2022/02/14 01:29:35;;;;;;;1.80;1.70;;;;;;;3.81;63.28;98234.84;5095177;28;39524;-80
2022/02/14 01:32:03;;;;;;;2.20;1.73;;;;;;;3.86;63.05;98232.00;5077968;28;41327;-80
2022/02/14 01:34:30;;;;;;;2.63;1.80;;;;;;;3.94;62.79;98236.00;5094963;28;41977;-80
2022/02/14 01:36:59;;;;;;;4.83;1.73;;;;;;;3.92;62.70;98216.00;5094520;28;43248;-80
2022/02/14 01:39:28;;;;;;;3.67;2.07;;;;;;;4.01;62.31;98209.50;5078130;28;40500;-80
2022/02/14 01:41:56;;;;;;;2.47;1.73;;;;;;;4.19;62.07;98229.59;5095671;28;41799;-80
2022/02/14 01:44:35;;;;;;;4.17;1.63;;;;;;;4.18;61.55;98206.94;5077860;28;41639;-80
2022/02/14 01:47:04;;;;;;;2.63;1.87;;;;;;;4.26;61.42;98207.41;5093922;28;41191;-80
2022/02/14 01:49:32;;;;;;;2.00;1.40;;;;;;;4.42;61.29;98216.25;5096082;28;40683;-81
2022/02/14 01:52:01;;;;;;;5.87;2.20;;;;;;;4.51;60.96;98221.06;5102016;28;42460;-80
2022/02/14 01:54:28;;;;;;;3.23;2.00;;;;;;;4.61;60.39;98226.69;5116125;28;41387;-81
2022/02/14 01:56:56;;;;;;;4.50;2.23;;;;;;;4.68;60.01;98223.72;5115621;28;43654;-80
2022/02/14 01:59:23;;;;;;;2.40;1.80;;;;;;;4.77;59.57;98226.81;5114000;28;40184;-82
2022/02/14 02:01:51;;;;;;;4.40;2.03;;;;;;;4.75;59.01;98197.19;5096996;28;41766;-81
2022/02/14 02:04:18;;;;;;;5.00;1.70;;;;;;;4.92;58.56;98210.31;5116425;28;44066;-80
2022/02/14 02:06:46;;;;;;;3.80;2.00;;;;;;;5.00;58.43;98208.16;5095711;28;41688;-79
2022/02/14 02:09:15;;;;;;;2.73;1.60;;;;;;;5.04;58.48;98194.81;5095999;28;40934;-80
2022/02/14 02:14:27;;;;;;;1.93;1.67;;;;;;;5.14;58.23;98200.44;5092458;28;42732;-80
2022/02/14 02:16:55;;;;;;;2.93;1.77;;;;;;;5.20;57.76;98200.09;5095146;28;42358;-79
2022/02/14 02:19:23;;;;;;;2.40;1.53;;;;;;;5.14;57.65;98173.34;5094253;28;40245;-80
2022/02/14 02:21:51;;;;;;;3.60;1.87;;;;;;;5.28;57.30;98189.22;5093833;28;40791;-81
2022/02/14 02:24:22;;;;;;;1.77;1.37;;;;;;;5.35;57.17;98183.56;5103585;28;42760;-80
2022/02/14 02:27:00;;;;;;;2.57;1.17;;;;;;;5.40;57.01;98191.22;5095185;28;41475;-80
2022/02/14 02:29:28;;;;;;;2.63;1.80;;;;;;;5.43;56.34;98183.19;5077245;28;42376;-80
2022/02/14 02:31:55;;;;;;;1.57;1.47;;;;;;;5.37;56.46;98155.44;5092902;28;40198;-81
2022/02/14 02:34:23;;;;;;;2.93;2.40;;;;;;;5.56;56.36;98180.75;5093956;28;41973;-80
2022/02/14 02:36:53;;;;;;;2.60;2.23;;;;;;;5.49;56.10;98163.59;5076621;28;42270;-80
2022/02/14 02:39:22;;;;;;;2.33;1.83;;;;;;;5.58;55.57;98179.72;5093989;28;40024;-80
2022/02/14 02:41:49;;;;;;;4.33;1.60;;;;;;;5.64;55.78;98174.16;5076906;28;41567;-81
2022/02/14 02:44:20;;;;;;;4.77;1.80;;;;;;;5.60;55.83;98162.09;5093765;28;42497;-81
2022/02/14 02:46:47;;;;;;;2.60;1.53;;;;;;;5.64;55.09;98160.16;5092944;28;40895;-80
2022/02/14 02:49:16;;;;;;;2.03;1.67;;;;;;;5.77;55.35;98169.09;5093802;28;40086;-81
2022/02/14 02:51:46;;;;;;;3.57;1.30;;;;;;;5.79;55.04;98172.50;5076187;28;42782;-80
2022/02/14 02:54:14;;;;;;;1.83;1.40;;;;;;;5.81;54.36;98175.84;5093530;28;41689;-80
2022/02/14 02:56:45;;;;;;;4.07;1.50;;;;;;;5.73;54.46;98151.78;5093104;28;41116;-81
2022/02/14 02:59:13;;;;;;;2.00;1.40;;;;;;;5.76;54.86;98151.63;5091836;28;40286;-80
2022/02/14 03:01:42;;;;;;;3.40;1.73;;;;;;;5.89;54.19;98164.97;5093391;28;42026;-80
2022/02/14 03:04:12;;;;;;;2.50;1.60;;;;;;;5.72;54.01;98135.19;5093244;28;42884;-81
2022/02/14 03:06:41;;;;;;;3.27;1.47;;;;;;;5.94;54.04;98161.16;5094454;28;42238;-80
2022/02/14 03:09:09;;;;;;;2.20;1.20;;;;;;;5.83;54.29;98131.97;5076747;28;38839;-80
2022/02/14 03:11:38;;;;;;;2.63;1.40;;;;;;;5.94;53.77;98150.63;5093150;28;42707;-80
2022/02/14 03:14:07;;;;;;;2.20;1.43;;;;;;;5.98;54.17;98151.31;5076128;28;43108;-80
2022/02/14 03:16:35;;;;;;;5.67;2.07;;;;;;;5.98;53.56;98156.59;5093771;28;42312;-80
2022/02/14 03:19:04;;;;;;;2.17;1.40;;;;;;;6.03;53.53;98149.31;5093311;28;39288;-80
2022/02/14 03:21:33;;;;;;;2.07;1.60;;;;;;;6.05;53.84;98140.41;5076091;28;42113;-80
2022/02/14 03:24:01;;;;;;;1.67;1.57;;;;;;;6.07;53.85;98135.03;5093277;28;42683;-80
2022/02/14 03:26:29;;;;;;;5.20;1.40;;;;;;;5.95;53.93;98119.94;5092785;28;43839;-80
2022/02/14 03:28:59;;;;;;;1.03;1.00;;;;;;;6.09;54.06;98133.19;5093370;28;40357;-81
2022/02/14 03:31:26;;;;;;;1.50;1.40;;;;;;;6.08;54.02;98140.22;5109822;28;41947;-80
2022/02/14 03:33:54;;;;;;;1.83;1.47;;;;;;;6.10;54.20;98140.13;5094066;28;43652;-80
2022/02/14 03:36:24;;;;;;;2.30;1.20;;;;;;;6.01;54.07;98128.34;5121699;27;41414;-80
2022/02/14 03:38:52;;;;;;;1.87;1.30;;;;;;;5.96;54.10;98127.75;5075908;28;40725;-80
2022/02/14 03:41:20;;;;;;;1.97;1.30;;;;;;;6.01;54.07;98122.25;5093737;28;42042;-80
2022/02/14 03:43:48;;;;;;;1.80;1.30;;;;;;;6.03;54.33;98123.88;5075998;28;41726;-80
2022/02/14 03:46:16;;;;;;;2.30;1.80;;;;;;;6.04;54.38;98128.19;5092408;28;42147;-80
2022/02/14 03:48:43;;;;;;;4.83;1.40;;;;;;;5.99;54.40;98111.81;5075883;28;39253;-80
2022/02/14 03:51:12;;;;;;;1.80;1.07;;;;;;;6.01;54.75;98119.63;5092156;28;42087;-81
2022/02/14 03:53:41;;;;;;;1.73;1.37;;;;;;;6.00;54.88;98113.53;5092618;28;41788;-80
2022/02/14 03:56:09;;;;;;;3.17;1.50;;;;;;;5.99;54.87;98122.34;5093649;28;42437;-81
2022/02/14 03:58:36;;;;;;;1.77;1.40;;;;;;;5.97;54.99;98116.31;5092682;28;40433;-80
2022/02/14 04:01:05;;;;;;;2.13;1.33;;;;;;;5.94;54.84;98107.75;5092249;28;41744;-81
2022/02/14 04:03:32;;;;;;;1.97;1.20;;;;;;;5.93;54.86;98104.31;5075386;28;43144;-81
2022/02/14 04:05:59;;;;;;;2.67;1.63;;;;;;;5.68;54.95;98070.63;5093031;28;42216;-80
2022/02/14 04:08:27;;;;;;;2.40;1.30;;;;;;;5.93;54.91;98111.34;5092303;28;42621;-80
2022/02/14 04:10:57;;;;;;;3.17;1.60;;;;;;;5.90;54.96;98101.84;5109052;28;43033;-80
2022/02/14 04:13:25;;;;;;;1.90;1.30;;;;;;;5.74;55.09;98085.19;5075498;28;44023;-80
2022/02/14 04:15:52;;;;;;;3.97;1.70;;;;;;;5.87;55.18;98106.38;5093004;28;42236;-80
2022/02/14 04:18:20;;;;;;;2.93;1.50;;;;;;;5.83;55.58;98097.81;5093426;28;41030;-80
2022/02/14 04:20:48;;;;;;;2.13;1.47;;;;;;;5.81;55.58;98091.78;5126125;27;41640;-80
2022/02/14 04:23:16;;;;;;;2.07;1.43;;;;;;;5.81;55.39;98086.53;5091866;28;42914;-80
2022/02/14 04:25:43;;;;;;;2.53;1.60;;;;;;;5.81;55.58;98086.53;5075074;28;42765;-80
2022/02/14 04:28:12;;;;;;;1.93;1.40;;;;;;;5.77;55.53;98074.50;5093136;28;39849;-81
2022/02/14 04:30:40;;;;;;;1.83;1.30;;;;;;;5.81;55.48;98076.03;5074611;28;43669;-80
2022/02/14 04:33:07;;;;;;;1.70;1.60;;;;;;;5.76;55.53;98064.94;5091948;28;42957;-81
2022/02/14 04:35:35;;;;;;;2.90;1.50;;;;;;;5.78;55.65;98070.97;5092039;28;42233;-81
2022/02/14 04:38:03;;;;;;;2.07;1.27;;;;;;;5.76;55.87;98073.66;5125528;27;40818;-82
2022/02/14 04:40:34;;;;;;;1.30;1.20;;;;;;;5.49;55.76;98035.78;5091834;28;41785;-81
2022/02/14 04:43:03;;;;;;;2.60;1.80;;;;;;;5.66;55.67;98067.22;5074371;28;43188;-80
2022/02/14 04:45:33;;;;;;;3.43;1.67;;;;;;;5.69;55.75;98071.44;5075982;28;42701;-80
2022/02/14 04:48:01;;;;;;;1.90;1.33;;;;;;;5.69;55.67;98076.69;5102600;28;39996;-80
2022/02/14 04:50:29;;;;;;;1.40;1.30;;;;;;;5.69;55.73;98076.69;5091900;28;41705;-80
2022/02/14 04:52:56;;;;;;;1.30;0.83;;;;;;;5.57;55.65;98043.22;5091261;28;43775;-81
2022/02/14 04:55:24;;;;;;;1.77;1.23;;;;;;;5.60;55.92;98062.31;5091112;28;42742;-81
2022/02/14 04:57:53;;;;;;;3.07;1.50;;;;;;;5.64;55.95;98070.88;5091666;28;41178;-80
2022/02/14 05:00:21;;;;;;;4.20;2.00;;;;;;;5.62;56.30;98062.22;5091878;28;41999;-80
2022/02/14 05:02:50;;;;;;;3.53;2.40;;;;;;;5.59;56.37;98050.09;5092646;28;43760;-80
2022/02/14 05:05:18;;;;;;;1.40;1.27;;;;;;;5.58;56.21;98052.81;5092500;28;42353;-80
2022/02/14 05:07:48;;;;;;;2.47;1.70;;;;;;;5.53;56.17;98044.34;5091602;28;40150;-81
2022/02/14 05:10:15;;;;;;;3.63;1.73;;;;;;;5.56;56.23;98055.53;5074992;28;40501;-80
2022/02/14 05:12:43;;;;;;;2.00;1.53;;;;;;;5.45;56.17;98036.03;5125895;27;42806;-80
2022/02/14 05:15:11;;;;;;;2.20;1.40;;;;;;;5.44;56.51;98034.38;5091544;28;43320;-81
2022/02/14 05:17:39;;;;;;;1.97;1.70;;;;;;;5.36;56.62;98033.00;5091509;28;38687;-80
2022/02/14 05:20:10;;;;;;;1.93;1.50;;;;;;;5.21;56.69;98007.56;5092202;28;41667;-81
2022/02/14 05:22:38;;;;;;;2.03;1.40;;;;;;;5.36;57.01;98048.75;5091226;28;43795;-80
2022/02/14 05:25:07;;;;;;;3.17;1.67;;;;;;;5.34;57.04;98041.88;5074302;28;42969;-80
2022/02/14 05:27:34;;;;;;;2.93;1.77;;;;;;;5.28;57.23;98045.69;5074065;28;40195;-80
2022/02/14 05:30:02;;;;;;;3.27;1.93;;;;;;;5.26;57.46;98044.94;5108161;28;40503;-80
2022/02/14 05:32:30;;;;;;;2.80;1.60;;;;;;;5.12;57.36;98029.06;5125035;27;42582;-80
2022/02/14 05:34:57;;;;;;;2.47;1.40;;;;;;;5.23;57.50;98041.59;5091188;28;42282;-81
2022/02/14 05:37:26;;;;;;;2.73;2.00;;;;;;;5.22;57.73;98045.16;5090420;28;39241;-81
2022/02/14 05:39:54;;;;;;;3.60;1.67;;;;;;;5.18;57.80;98043.66;5091314;28;41405;-79
2022/02/14 05:42:22;;;;;;;1.70;1.60;;;;;;;5.16;58.11;98041.09;5073740;28;42036;-80
2022/02/14 05:44:49;;;;;;;1.97;1.80;;;;;;;5.02;58.25;98015.59;5073936;28;41110;-80
2022/02/14 05:47:17;;;;;;;2.70;1.67;;;;;;;5.11;58.55;98032.63;5090172;28;41282;-79
2022/02/14 05:49:45;;;;;;;3.37;2.00;;;;;;;5.10;58.30;98022.19;5091140;28;41792;-80
2022/02/14 05:52:12;;;;;;;2.17;1.47;;;;;;;5.11;58.36;98022.13;5073595;28;44110;-80
2022/02/14 05:54:42;;;;;;;1.83;1.30;;;;;;;5.01;58.25;98002.56;5091645;28;42327;-81
2022/02/14 05:57:10;;;;;;;3.13;1.93;;;;;;;5.17;58.07;98027.06;5111110;28;39058;-80
2022/02/14 05:59:38;;;;;;;2.90;1.40;;;;;;;5.15;57.95;98028.91;5111691;28;41614;-80
2022/02/14 06:02:06;;;;;;;2.57;1.47;;;;;;;5.10;57.97;98017.81;5078247;28;43352;-81
2022/02/14 06:04:34;;;;;;;1.70;1.60;;;;;;;5.16;57.99;98035.00;5071285;28;42165;-80
2022/02/14 06:07:01;;;;;;;1.50;1.40;;;;;;;5.04;58.13;98020.78;5070756;28;40122;-80
2022/02/14 06:09:29;;;;;;;1.43;1.27;;;;;;;4.97;58.18;98022.00;5090748;28;41915;-80
2022/02/14 06:11:58;;;;;;;2.13;1.23;;;;;;;4.98;58.22;98039.44;5056961;28;43576;-81
2022/02/14 06:14:27;;;;;;;2.17;1.20;;;;;;;4.91;57.97;98035.47;5087532;28;42210;-81
2022/02/14 06:16:55;;;;;;;2.20;1.73;;;;;;;4.84;58.12;98034.06;5093889;28;39806;-80
2022/02/14 06:19:22;;;;;;;2.53;1.77;;;;;;;4.81;58.12;98039.50;5076788;28;42310;-81
2022/02/14 06:21:50;;;;;;;4.27;1.53;;;;;;;4.77;58.27;98036.19;5093381;28;42663;-81
2022/02/14 06:24:19;;;;;;;3.20;2.03;;;;;;;4.70;58.41;98035.66;5094194;28;42237;-80
2022/02/14 06:26:46;;;;;;;2.50;1.60;;;;;;;4.67;58.64;98037.59;5076764;28;39349;-81
2022/02/14 06:29:15;;;;;;;3.47;1.10;;;;;;;4.67;58.95;98040.22;5093800;28;41875;-81
2022/02/14 06:31:43;;;;;;;3.33;1.43;;;;;;;4.60;59.22;98041.44;5095039;28;42695;-80
2022/02/14 06:34:11;;;;;;;2.53;1.67;;;;;;;4.58;59.23;98041.53;5093656;28;42581;-80
2022/02/14 09:06:22;;;;;;;3.20;2.00;;;;;;;17.80;33.10;98091.41;5121718;27;20531;-83
2022/02/14 09:08:50;;;;;;;1.57;1.47;;;;;;;17.26;32.07;98114.78;5087585;28;38761;-83
2022/02/14 09:11:18;;;;;;;1.47;1.33;;;;;;;17.50;31.21;98117.63;5088357;28;40865;-84
2022/02/14 09:13:45;;;;;;;2.00;1.37;;;;;;;19.13;29.27;98131.66;5071126;28;41662;-83
2022/02/14 09:16:13;;;;;;;2.00;1.60;;;;;;;20.76;28.40;98119.47;5071239;28;43864;-85
2022/02/14 09:18:41;;;;;;;1.40;1.30;;;;;;;21.56;26.96;98125.25;5087933;28;40791;-85
2022/02/14 09:21:11;;;;;;;1.57;1.47;;;;;;;21.71;26.69;98126.13;5087461;28;41889;-84
2022/02/14 09:23:40;;;;;;;1.93;1.50;;;;;;;21.24;26.22;98134.47;5071232;28;41746;-87
2022/02/14 09:26:07;;;;;;;2.40;1.47;;;;;;;20.67;26.92;98125.91;5070775;28;41957;-84
2022/02/14 09:28:35;;;;;;;3.13;1.67;;;;;;;20.31;27.51;98115.66;5087772;28;38788;-84
2022/02/14 09:31:04;;;;;;;4.53;1.60;;;;;;;20.03;28.47;98115.25;5070835;28;42412;-82
2022/02/14 09:33:32;;;;;;;1.83;1.57;;;;;;;19.65;28.25;98095.41;5070298;28;42778;-82
2022/02/14 09:35:59;;;;;;;2.80;1.80;;;;;;;19.42;29.12;98113.19;5070737;28;41104;-86
2022/02/14 09:38:27;;;;;;;1.67;1.57;;;;;;;19.10;29.11;98118.56;5070335;28;39460;-83
2022/02/14 09:40:56;;;;;;;1.70;1.53;;;;;;;18.98;29.90;98105.50;5087439;28;41612;-84
2022/02/14 09:43:24;;;;;;;3.10;1.60;;;;;;;19.32;29.35;98112.53;5087247;28;42503;-82
2022/02/14 09:45:51;;;;;;;3.53;1.87;;;;;;;19.42;28.34;98102.44;5087672;28;43454;-87
2022/02/14 09:48:20;;;;;;;1.57;1.40;;;;;;;19.71;28.05;98124.25;5070254;28;41297;-85
2022/02/14 09:50:48;;;;;;;3.70;1.60;;;;;;;19.55;28.64;98097.41;5070604;28;42068;-85
2022/02/14 09:53:18;;;;;;;2.23;1.23;;;;;;;19.63;29.71;98100.09;5067934;28;41650;-80
2022/02/14 09:55:47;;;;;;;2.10;1.27;;;;;;;19.54;29.09;98111.00;5086475;28;44002;-80
2022/02/14 09:58:17;;;;;;;2.33;1.77;;;;;;;19.32;28.83;98096.41;5087210;28;39926;-80
2022/02/14 10:00:44;;;;;;;2.47;1.40;;;;;;;19.30;28.24;98106.47;5087943;28;41673;-80
2022/02/14 10:03:14;;;;;;;1.70;1.23;;;;;;;19.20;28.63;98108.50;5086766;28;41732;-80
2022/02/14 10:05:43;;;;;;;2.57;1.20;;;;;;;19.39;28.99;98097.44;5069711;28;41357;-81
2022/02/14 10:08:11;;;;;;;1.40;1.10;;;;;;;19.39;29.33;98097.44;5088221;28;39960;-80
2022/02/14 10:10:39;;;;;;;3.40;1.30;;;;;;;19.22;29.23;98099.28;5087246;28;42470;-80
2022/02/14 10:13:07;;;;;;;1.50;1.30;;;;;;;19.08;29.65;98099.13;5087319;28;42655;-80
2022/02/14 10:15:50;;;;;;;2.40;1.10;;;;;;;18.92;29.36;98103.47;5085265;28;42473;-81
2022/02/14 10:18:27;;;;;;;2.13;1.30;;;;;;;18.92;29.69;98073.94;5071765;28;39872;-81
2022/02/14 10:21:21;;;;;;;1.33;0.97;;;;;;;18.99;30.00;98091.06;5056234;28;42441;-80
2022/02/14 10:24:03;;;;;;;2.20;1.00;;;;;;;18.61;29.64;98087.19;5073967;28;43695;-80
2022/02/14 10:26:33;;;;;;;1.10;1.00;;;;;;;18.24;30.17;98089.41;5073314;28;42543;-80
2022/02/14 10:29:09;;;;;;;0.90;0.90;;;;;;;17.89;31.41;98079.72;5056466;28;38993;-80
2022/02/14 10:31:43;;;;;;;1.50;1.00;;;;;;;17.55;31.20;98069.81;5070855;28;41969;-80
2022/02/14 10:34:11;;;;;;;1.27;1.17;;;;;;;17.28;31.77;98072.66;5071271;28;43916;-80
2022/02/14 10:36:41;;;;;;;1.30;1.10;;;;;;;17.06;32.17;98067.81;5056726;28;41240;-80
2022/02/14 10:39:11;;;;;;;1.30;1.20;;;;;;;16.66;32.76;98057.63;5073504;28;38954;-80
2022/02/14 10:41:39;;;;;;;0.93;0.93;;;;;;;16.50;33.11;98059.13;5056584;28;41009;-80
2022/02/14 10:44:13;;;;;;;2.27;1.07;;;;;;;16.25;33.81;98048.31;5056414;28;41367;-80
2022/02/14 10:46:43;;;;;;;1.40;1.30;;;;;;;15.92;34.16;98037.31;5056401;28;43821;-80
2022/02/14 10:49:11;;;;;;;3.50;1.10;;;;;;;15.87;34.99;98050.25;5073101;28;40979;-80
2022/02/14 10:51:38;;;;;;;1.87;0.90;;;;;;;15.73;34.85;98042.72;5072990;28;41301;-80
2022/02/14 10:54:06;;;;;;;1.23;1.20;;;;;;;15.65;35.63;98034.63;5073076;28;42766;-79
2022/02/14 10:56:40;;;;;;;1.97;1.03;;;;;;;15.54;35.49;98037.44;5072799;28;43127;-80
2022/02/14 10:59:10;;;;;;;1.70;1.20;;;;;;;15.41;35.33;98043.97;5055875;28;40155;-80
2022/02/14 11:01:39;;;;;;;1.37;1.10;;;;;;;15.19;35.69;98030.13;5056092;28;40653;-80
2022/02/14 11:04:08;;;;;;;1.80;1.10;;;;;;;15.09;36.05;98027.47;5055429;28;43371;-80
2022/02/14 11:06:38;;;;;;;2.20;1.10;;;;;;;14.94;36.38;98018.28;5070847;28;42148;-80
2022/02/14 11:09:07;;;;;;;1.47;0.90;;;;;;;14.89;36.29;98023.19;5070268;28;39572;-80
2022/02/14 11:11:38;;;;;;;2.70;1.40;;;;;;;14.80;36.33;98021.38;5055865;28;40808;-80
2022/02/14 11:14:07;;;;;;;1.10;0.70;;;;;;;14.72;36.64;98014.06;5069847;28;43464;-80
2022/02/14 11:16:40;;;;;;;0.90;0.90;;;;;;;14.64;36.66;98012.13;5055280;28;41114;-79
2022/02/14 11:19:11;;;;;;;1.57;0.97;;;;;;;14.60;37.19;98010.72;5055274;28;39150;-79
2022/02/14 11:21:40;;;;;;;0.93;0.90;;;;;;;14.55;36.97;98007.66;5072444;28;40611;-79
2022/02/14 11:24:19;;;;;;;1.00;0.90;;;;;;;14.47;37.07;98004.84;5055503;28;43505;-79
2022/02/14 11:26:57;;;;;;;1.87;1.20;;;;;;;14.36;37.12;98000.47;5055434;28;41170;-79
2022/02/14 11:29:39;;;;;;;1.27;0.97;;;;;;;14.26;37.52;97980.16;5063533;28;40078;-82
2022/02/14 11:32:25;;;;;;;2.90;0.90;;;;;;;14.33;37.87;97974.13;5055501;28;40561;-83
2022/02/14 11:35:02;;;;;;;1.13;1.00;;;;;;;14.51;37.70;97984.94;5054719;28;41931;-85
2022/02/14 11:37:51;;;;;;;2.03;1.20;;;;;;;14.57;38.27;97981.72;5055353;28;42841;-81
2022/02/14 11:40:32;;;;;;;2.03;1.17;;;;;;;14.68;38.61;97973.56;5067636;28;39185;-81
2022/02/14 11:43:07;;;;;;;2.00;0.97;;;;;;;14.86;38.11;97978.13;5055638;28;41811;-84
2022/02/14 11:45:36;;;;;;;1.30;1.00;;;;;;;15.14;37.50;97982.56;5071151;28;42700;-84
2022/02/14 11:48:23;;;;;;;1.07;1.07;;;;;;;15.55;37.42;97980.47;5055891;28;42291;-86
2022/02/14 11:51:05;;;;;;;1.70;1.00;;;;;;;15.95;37.09;97978.22;5055062;28;40169;-84
2022/02/14 11:53:35;;;;;;;1.23;0.97;;;;;;;16.33;36.21;97965.56;5055700;28;40521;-84
2022/02/14 11:56:25;;;;;;;2.50;1.10;;;;;;;16.72;35.67;97977.63;5071490;28;42400;-84
2022/02/14 11:59:02;;;;;;;1.17;1.07;;;;;;;16.84;35.39;97971.03;5071191;28;41909;-83
2022/02/14 12:01:30;;;;;;;2.73;1.20;;;;;;;16.88;35.22;97976.91;5055383;28;40380;-82
2022/02/14 12:04:31;;;;;;;1.63;0.90;;;;;;;16.94;35.05;97980.81;5054159;28;43403;-84
2022/02/14 12:07:36;;;;;;;0.93;0.80;;;;;;;17.11;35.31;97971.88;5071654;28;44558;-84
2022/02/14 12:10:24;;;;;;;1.90;1.40;;;;;;;17.39;35.19;97973.38;4977959;28;42905;-86
2022/02/14 12:13:08;;;;;;;2.87;1.00;;;;;;;17.75;33.92;97976.72;4978614;28;40257;-81
2022/02/14 12:21:40;;;;;;;1.30;1.20;;;;;;;26.16;24.11;98019.34;5055647;28;42323;-83
2022/02/14 12:24:19;;;;;;;2.00;1.20;;;;;;;28.72;21.07;98021.63;5054494;28;39896;-85
2022/02/14 12:26:54;;;;;;;1.90;1.30;;;;;;;30.96;19.79;98028.34;5068378;28;41462;-84
2022/02/14 12:29:35;;;;;;;2.30;1.63;;;;;;;31.60;18.66;98036.28;5054348;28;45142;-86
2022/02/14 12:32:06;;;;;;;1.57;1.00;;;;;;;29.14;20.12;98019.75;5055603;28;40974;-89
2022/02/14 12:34:37;;;;;;;1.40;1.00;;;;;;;27.22;21.36;98008.66;5070995;28;38673;-88
2022/02/14 12:37:07;;;;;;;1.97;1.23;;;;;;;25.95;23.13;98002.31;5038626;28;42710;-85
2022/02/14 12:39:40;;;;;;;1.50;1.20;;;;;;;25.34;23.89;97983.69;5068607;28;42707;-86
2022/02/14 12:42:20;;;;;;;3.33;1.30;;;;;;;24.58;23.90;97979.69;5054663;28;43098;-90
2022/02/14 12:44:49;;;;;;;2.27;1.20;;;;;;;23.88;25.37;97965.50;5054224;28;38997;-88
2022/02/14 12:47:18;;;;;;;2.00;0.90;;;;;;;24.46;25.38;97925.31;5054854;28;41702;-85
2022/02/14 12:50:02;;;;;;;1.77;1.00;;;;;;;25.61;24.83;97951.09;5071033;28;41740;-86
2022/02/14 12:52:30;;;;;;;3.03;1.13;;;;;;;25.97;24.12;97978.50;5054720;28;41094;-89
2022/02/14 12:55:00;;;;;;;1.10;1.00;;;;;;;25.09;25.50;97963.69;5053706;28;39370;-83
2022/02/14 12:57:40;;;;;;;1.73;1.40;;;;;;;24.43;25.96;97952.78;5054621;28;41751;-84
2022/02/14 13:00:21;;;;;;;1.07;0.90;;;;;;;23.99;26.80;97948.69;5053902;28;42507;-84
2022/02/14 13:02:50;;;;;;;3.30;1.20;;;;;;;23.65;27.53;97943.34;5068101;28;41997;-84
2022/02/14 13:05:18;;;;;;;1.40;1.07;;;;;;;23.48;27.76;97925.78;5053710;28;38628;-86
2022/02/14 13:07:46;;;;;;;1.00;0.90;;;;;;;23.61;27.05;97942.91;5071055;28;40396;-82
2022/02/14 13:10:17;;;;;;;1.07;0.97;;;;;;;25.40;25.92;97955.72;5070411;28;41646;-83
2022/02/14 13:12:58;;;;;;;1.80;1.00;;;;;;;25.17;25.62;97946.38;5070763;28;42002;-83
2022/02/14 13:15:26;;;;;;;1.60;0.70;;;;;;;24.38;27.04;97928.19;5070340;28;39322;-83
2022/02/14 13:17:53;;;;;;;1.20;1.00;;;;;;;23.98;27.96;97932.69;5072271;28;41826;-82
2022/02/14 13:20:22;;;;;;;1.47;0.90;;;;;;;23.33;28.34;97933.19;5071185;28;42947;-83
2022/02/14 13:22:49;;;;;;;1.10;1.00;;;;;;;22.75;29.35;97924.44;5070735;28;41457;-84
2022/02/14 13:25:21;;;;;;;1.20;1.10;;;;;;;22.16;29.37;97919.31;5053563;28;39914;-83
2022/02/14 13:27:51;;;;;;;1.50;1.13;;;;;;;21.51;30.58;97914.84;5054249;28;42996;-87
2022/02/14 13:30:20;;;;;;;2.27;1.13;;;;;;;20.99;31.29;97913.03;5070216;28;41699;-82
2022/02/14 13:32:49;;;;;;;0.93;0.80;;;;;;;20.71;32.32;97903.91;5070609;28;42722;-83
2022/02/14 13:35:18;;;;;;;2.47;0.80;;;;;;;20.40;32.91;97904.00;5071213;28;39911;-82
2022/02/14 13:37:48;;;;;;;1.30;0.90;;;;;;;20.11;33.66;97896.66;5053986;28;40688;-83
2022/02/14 13:40:22;;;;;;;1.60;0.90;;;;;;;19.85;34.64;97894.31;5053331;28;42862;-83
2022/02/14 13:42:50;;;;;;;2.83;1.03;;;;;;;19.40;34.82;97878.94;5070507;28;41337;-83
2022/02/14 13:45:19;;;;;;;2.03;0.93;;;;;;;19.10;35.78;97885.09;5071102;28;39983;-82
2022/02/14 13:47:47;;;;;;;1.73;0.80;;;;;;;18.69;35.96;97879.81;5070665;28;42671;-82
2022/02/14 13:50:22;;;;;;;1.00;0.90;;;;;;;18.59;36.63;97885.38;5053287;28;41990;-83
2022/02/14 13:52:51;;;;;;;2.13;1.07;;;;;;;18.40;36.78;97884.88;5056686;28;41936;-83
2022/02/14 13:55:24;;;;;;;1.50;0.83;;;;;;;18.28;37.45;97882.53;5073426;28;40932;-83
2022/02/14 13:57:53;;;;;;;1.37;1.10;;;;;;;18.16;37.65;97875.84;5074105;28;41070;-81
2022/02/14 14:00:32;;;;;;;2.37;0.93;;;;;;;18.04;37.74;97869.13;5056428;28;42802;-81
2022/02/14 14:03:01;;;;;;;0.80;0.73;;;;;;;17.93;37.99;97861.41;5074068;28;41310;-83
2022/02/14 14:05:36;;;;;;;0.80;0.80;;;;;;;17.98;38.07;97868.94;5073290;28;39892;-85
2022/02/14 14:08:04;;;;;;;1.00;0.90;;;;;;;17.83;38.77;97855.38;5073947;28;43132;-84
2022/02/14 14:10:42;;;;;;;1.83;1.10;;;;;;;17.73;38.73;97860.06;5056366;28;43417;-84
2022/02/14 14:13:11;;;;;;;1.40;0.70;;;;;;;17.54;39.01;97866.53;5057528;28;42290;-83
2022/02/14 14:15:40;;;;;;;2.30;1.00;;;;;;;17.31;39.82;97855.56;5072957;28;38768;-83
2022/02/14 14:18:09;;;;;;;1.60;1.17;;;;;;;17.18;39.48;97863.22;5056779;28;40774;-80
2022/02/14 14:20:37;;;;;;;1.33;1.10;;;;;;;17.05;39.55;97850.31;5073731;28;43810;-87
2022/02/14 14:23:05;;;;;;;3.77;0.77;;;;;;;16.98;39.91;97854.59;5073868;28;42931;-86
2022/02/14 14:25:34;;;;;;;1.77;1.00;;;;;;;16.86;40.37;97854.06;5056117;28;38972;-84
2022/02/14 14:28:04;;;;;;;0.87;0.87;;;;;;;16.72;40.23;97859.16;5056654;28;41120;-84
2022/02/14 14:30:32;;;;;;;1.03;0.77;;;;;;;16.49;40.54;97854.31;5072999;28;43938;-86